sensor_id;sensor_type;location;lat;lon;timestamp;P1;durP1;ratioP1;P2;durP2;ratioP2
82387;SDS011;72027;47.420;9.310;2023-08-06T00:00:58;4.25;;;1.38;;
82387;SDS011;72027;47.420;9.310;2023-08-06T00:03:25;2.42;;;1.40;;
82387;SDS011;72027;47.420;9.310;2023-08-06T00:05:52;1.17;;;0.98;;
82387;SDS011;72027;47.420;9.310;2023-08-06T00:08:19;2.03;;;1.55;;
82387;SDS011;72027;47.420;9.310;2023-08-06T00:10:47;1.70;;;1.58;;
82387;SDS011;72027;47.420;9.310;2023-08-06T00:13:14;2.45;;;1.40;;
82387;SDS011;72027;47.420;9.310;2023-08-06T00:15:41;1.17;;;1.08;;
82387;SDS011;72027;47.420;9.310;2023-08-06T00:18:08;2.30;;;1.77;;
82387;SDS011;72027;47.420;9.310;2023-08-06T00:20:34;3.42;;;1.25;;
82387;SDS011;72027;47.420;9.310;2023-08-06T00:23:01;1.30;;;1.20;;
82387;SDS011;72027;47.420;9.310;2023-08-06T00:25:28;1.33;;;1.23;;
82387;SDS011;72027;47.420;9.310;2023-08-06T00:27:55;3.53;;;1.88;;
82387;SDS011;72027;47.420;9.310;2023-08-06T00:30:22;3.53;;;1.85;;
82387;SDS011;72027;47.420;9.310;2023-08-06T00:32:49;2.85;;;1.40;;
82387;SDS011;72027;47.420;9.310;2023-08-06T00:35:16;1.30;;;1.20;;
82387;SDS011;72027;47.420;9.310;2023-08-06T00:37:43;1.98;;;1.40;;
82387;SDS011;72027;47.420;9.310;2023-08-06T00:40:09;2.05;;;1.10;;
82387;SDS011;72027;47.420;9.310;2023-08-06T00:42:36;1.67;;;1.50;;
82387;SDS011;72027;47.420;9.310;2023-08-06T00:45:03;2.80;;;0.90;;
82387;SDS011;72027;47.420;9.310;2023-08-06T00:47:30;1.83;;;1.05;;
82387;SDS011;72027;47.420;9.310;2023-08-06T00:49:57;1.30;;;1.20;;
82387;SDS011;72027;47.420;9.310;2023-08-06T00:52:24;1.60;;;1.20;;
82387;SDS011;72027;47.420;9.310;2023-08-06T00:54:51;1.23;;;1.13;;
82387;SDS011;72027;47.420;9.310;2023-08-06T00:57:17;0.95;;;0.85;;
82387;SDS011;72027;47.420;9.310;2023-08-06T00:59:46;1.10;;;1.05;;
82387;SDS011;72027;47.420;9.310;2023-08-06T01:02:13;1.40;;;1.30;;
82387;SDS011;72027;47.420;9.310;2023-08-06T01:04:40;1.70;;;1.20;;
82387;SDS011;72027;47.420;9.310;2023-08-06T01:07:14;1.38;;;1.27;;
82387;SDS011;72027;47.420;9.310;2023-08-06T01:15:32;1.17;;;1.02;;
82387;SDS011;72027;47.420;9.310;2023-08-06T01:18:05;3.65;;;1.05;;
82387;SDS011;72027;47.420;9.310;2023-08-06T01:20:32;1.70;;;1.33;;
82387;SDS011;72027;47.420;9.310;2023-08-06T01:22:59;1.27;;;1.17;;
82387;SDS011;72027;47.420;9.310;2023-08-06T01:25:30;2.25;;;1.17;;
82387;SDS011;72027;47.420;9.310;2023-08-06T01:28:11;1.95;;;1.35;;
82387;SDS011;72027;47.420;9.310;2023-08-06T01:30:45;1.25;;;1.02;;
82387;SDS011;72027;47.420;9.310;2023-08-06T01:33:14;4.72;;;1.30;;
82387;SDS011;72027;47.420;9.310;2023-08-06T01:35:45;3.00;;;1.10;;
82387;SDS011;72027;47.420;9.310;2023-08-06T01:38:14;3.28;;;1.00;;
82387;SDS011;72027;47.420;9.310;2023-08-06T01:40:41;1.30;;;1.20;;
82387;SDS011;72027;47.420;9.310;2023-08-06T01:43:08;1.13;;;1.02;;
82387;SDS011;72027;47.420;9.310;2023-08-06T01:45:34;2.05;;;1.13;;
82387;SDS011;72027;47.420;9.310;2023-08-06T01:48:01;1.23;;;1.00;;
82387;SDS011;72027;47.420;9.310;2023-08-06T01:50:28;0.90;;;0.90;;
82387;SDS011;72027;47.420;9.310;2023-08-06T01:52:55;3.28;;;1.40;;
82387;SDS011;72027;47.420;9.310;2023-08-06T01:55:22;3.40;;;1.00;;
82387;SDS011;72027;47.420;9.310;2023-08-06T01:57:48;0.80;;;0.80;;
82387;SDS011;72027;47.420;9.310;2023-08-06T02:00:15;1.20;;;1.10;;
82387;SDS011;72027;47.420;9.310;2023-08-06T02:02:42;1.38;;;1.17;;
82387;SDS011;72027;47.420;9.310;2023-08-06T02:05:08;1.20;;;1.10;;
82387;SDS011;72027;47.420;9.310;2023-08-06T02:07:35;0.90;;;0.90;;
82387;SDS011;72027;47.420;9.310;2023-08-06T02:10:02;1.77;;;1.17;;
82387;SDS011;72027;47.420;9.310;2023-08-06T02:12:29;1.50;;;1.13;;
82387;SDS011;72027;47.420;9.310;2023-08-06T02:14:55;1.38;;;1.00;;
82387;SDS011;72027;47.420;9.310;2023-08-06T02:17:22;1.60;;;1.27;;
82387;SDS011;72027;47.420;9.310;2023-08-06T02:19:49;1.88;;;0.90;;
82387;SDS011;72027;47.420;9.310;2023-08-06T02:22:15;1.52;;;1.00;;
82387;SDS011;72027;47.420;9.310;2023-08-06T02:24:42;2.20;;;1.00;;
82387;SDS011;72027;47.420;9.310;2023-08-06T02:27:09;1.77;;;1.10;;
82387;SDS011;72027;47.420;9.310;2023-08-06T02:29:36;1.05;;;0.95;;
82387;SDS011;72027;47.420;9.310;2023-08-06T02:32:03;1.15;;;1.05;;
82387;SDS011;72027;47.420;9.310;2023-08-06T02:34:30;1.17;;;0.90;;
82387;SDS011;72027;47.420;9.310;2023-08-06T02:36:56;1.50;;;1.30;;
82387;SDS011;72027;47.420;9.310;2023-08-06T02:39:23;1.27;;;1.00;;
82387;SDS011;72027;47.420;9.310;2023-08-06T02:41:50;1.23;;;1.08;;
82387;SDS011;72027;47.420;9.310;2023-08-06T02:44:17;3.72;;;1.27;;
82387;SDS011;72027;47.420;9.310;2023-08-06T02:46:44;1.38;;;1.20;;
82387;SDS011;72027;47.420;9.310;2023-08-06T02:49:11;1.48;;;1.13;;
82387;SDS011;72027;47.420;9.310;2023-08-06T02:51:38;1.02;;;1.02;;
82387;SDS011;72027;47.420;9.310;2023-08-06T02:54:04;0.95;;;0.90;;
82387;SDS011;72027;47.420;9.310;2023-08-06T02:56:31;2.60;;;1.00;;
82387;SDS011;72027;47.420;9.310;2023-08-06T02:58:58;0.80;;;0.80;;
82387;SDS011;72027;47.420;9.310;2023-08-06T03:01:26;1.45;;;1.10;;
82387;SDS011;72027;47.420;9.310;2023-08-06T03:03:54;1.38;;;1.00;;
82387;SDS011;72027;47.420;9.310;2023-08-06T03:06:21;0.90;;;0.90;;
82387;SDS011;72027;47.420;9.310;2023-08-06T03:08:48;1.80;;;0.95;;
82387;SDS011;72027;47.420;9.310;2023-08-06T03:11:14;0.98;;;0.90;;
82387;SDS011;72027;47.420;9.310;2023-08-06T03:13:41;1.63;;;1.38;;
82387;SDS011;72027;47.420;9.310;2023-08-06T03:16:08;0.75;;;0.75;;
82387;SDS011;72027;47.420;9.310;2023-08-06T03:18:34;1.42;;;1.00;;
82387;SDS011;72027;47.420;9.310;2023-08-06T03:21:01;1.13;;;1.02;;
82387;SDS011;72027;47.420;9.310;2023-08-06T03:23:28;1.17;;;1.00;;
82387;SDS011;72027;47.420;9.310;2023-08-06T03:25:55;1.17;;;1.08;;
82387;SDS011;72027;47.420;9.310;2023-08-06T03:28:21;1.20;;;1.10;;
82387;SDS011;72027;47.420;9.310;2023-08-06T03:30:48;1.63;;;1.27;;
82387;SDS011;72027;47.420;9.310;2023-08-06T03:33:25;0.88;;;0.88;;
82387;SDS011;72027;47.420;9.310;2023-08-06T03:35:52;4.07;;;1.10;;
82387;SDS011;72027;47.420;9.310;2023-08-06T03:38:19;3.67;;;1.00;;
82387;SDS011;72027;47.420;9.310;2023-08-06T03:40:46;0.88;;;0.88;;
82387;SDS011;72027;47.420;9.310;2023-08-06T03:43:12;0.73;;;0.70;;
82387;SDS011;72027;47.420;9.310;2023-08-06T03:45:40;1.77;;;0.70;;
82387;SDS011;72027;47.420;9.310;2023-08-06T03:48:07;0.82;;;0.75;;
82387;SDS011;72027;47.420;9.310;2023-08-06T03:50:34;1.05;;;0.90;;
82387;SDS011;72027;47.420;9.310;2023-08-06T03:53:01;1.55;;;0.75;;
82387;SDS011;72027;47.420;9.310;2023-08-06T03:55:28;0.75;;;0.75;;
82387;SDS011;72027;47.420;9.310;2023-08-06T03:57:55;1.25;;;0.95;;
82387;SDS011;72027;47.420;9.310;2023-08-06T04:00:21;0.88;;;0.88;;
82387;SDS011;72027;47.420;9.310;2023-08-06T04:02:48;0.70;;;0.70;;
82387;SDS011;72027;47.420;9.310;2023-08-06T04:05:16;0.73;;;0.73;;
82387;SDS011;72027;47.420;9.310;2023-08-06T04:07:43;1.27;;;1.00;;
82387;SDS011;72027;47.420;9.310;2023-08-06T04:10:10;1.20;;;1.08;;
82387;SDS011;72027;47.420;9.310;2023-08-06T04:12:37;1.08;;;0.80;;
82387;SDS011;72027;47.420;9.310;2023-08-06T04:15:05;0.77;;;0.77;;
82387;SDS011;72027;47.420;9.310;2023-08-06T04:17:32;1.20;;;1.00;;
82387;SDS011;72027;47.420;9.310;2023-08-06T04:19:59;0.95;;;0.95;;
82387;SDS011;72027;47.420;9.310;2023-08-06T04:22:26;0.80;;;0.80;;
82387;SDS011;72027;47.420;9.310;2023-08-06T04:24:53;0.73;;;0.73;;
82387;SDS011;72027;47.420;9.310;2023-08-06T04:27:20;0.88;;;0.77;;
82387;SDS011;72027;47.420;9.310;2023-08-06T04:29:47;1.27;;;1.05;;
82387;SDS011;72027;47.420;9.310;2023-08-06T04:32:14;1.40;;;0.90;;
82387;SDS011;72027;47.420;9.310;2023-08-06T04:34:40;0.70;;;0.70;;
82387;SDS011;72027;47.420;9.310;2023-08-06T04:37:07;0.98;;;0.75;;
82387;SDS011;72027;47.420;9.310;2023-08-06T04:39:34;1.13;;;0.90;;
82387;SDS011;72027;47.420;9.310;2023-08-06T04:42:00;0.85;;;0.80;;
82387;SDS011;72027;47.420;9.310;2023-08-06T04:44:27;1.40;;;0.90;;
82387;SDS011;72027;47.420;9.310;2023-08-06T04:46:54;0.82;;;0.80;;
82387;SDS011;72027;47.420;9.310;2023-08-06T04:49:21;0.93;;;0.82;;
82387;SDS011;72027;47.420;9.310;2023-08-06T04:51:48;0.70;;;0.70;;
82387;SDS011;72027;47.420;9.310;2023-08-06T04:54:14;0.98;;;0.93;;
82387;SDS011;72027;47.420;9.310;2023-08-06T04:56:41;1.30;;;1.00;;
82387;SDS011;72027;47.420;9.310;2023-08-06T04:59:08;0.90;;;0.90;;
82387;SDS011;72027;47.420;9.310;2023-08-06T05:01:35;1.10;;;0.88;;
82387;SDS011;72027;47.420;9.310;2023-08-06T05:04:01;0.63;;;0.63;;
82387;SDS011;72027;47.420;9.310;2023-08-06T05:06:28;0.75;;;0.75;;
82387;SDS011;72027;47.420;9.310;2023-08-06T05:08:55;1.33;;;1.00;;
82387;SDS011;72027;47.420;9.310;2023-08-06T05:11:22;1.02;;;0.70;;
82387;SDS011;72027;47.420;9.310;2023-08-06T05:13:50;0.70;;;0.70;;
82387;SDS011;72027;47.420;9.310;2023-08-06T05:16:17;2.22;;;0.75;;
82387;SDS011;72027;47.420;9.310;2023-08-06T05:18:43;1.15;;;0.70;;
82387;SDS011;72027;47.420;9.310;2023-08-06T05:21:10;0.93;;;0.90;;
82387;SDS011;72027;47.420;9.310;2023-08-06T05:23:37;1.00;;;0.90;;
82387;SDS011;72027;47.420;9.310;2023-08-06T05:26:03;0.70;;;0.70;;
82387;SDS011;72027;47.420;9.310;2023-08-06T05:28:30;0.60;;;0.60;;
82387;SDS011;72027;47.420;9.310;2023-08-06T05:30:57;1.25;;;1.00;;
82387;SDS011;72027;47.420;9.310;2023-08-06T05:33:24;0.80;;;0.80;;
82387;SDS011;72027;47.420;9.310;2023-08-06T05:35:50;1.00;;;0.90;;
82387;SDS011;72027;47.420;9.310;2023-08-06T05:38:17;1.00;;;0.88;;
82387;SDS011;72027;47.420;9.310;2023-08-06T05:40:44;0.93;;;0.93;;
82387;SDS011;72027;47.420;9.310;2023-08-06T05:43:11;1.23;;;1.10;;
82387;SDS011;72027;47.420;9.310;2023-08-06T05:45:37;1.13;;;0.90;;
82387;SDS011;72027;47.420;9.310;2023-08-06T05:48:04;0.60;;;0.60;;
82387;SDS011;72027;47.420;9.310;2023-08-06T05:50:31;0.70;;;0.70;;
82387;SDS011;72027;47.420;9.310;2023-08-06T05:52:58;0.60;;;0.60;;
82387;SDS011;72027;47.420;9.310;2023-08-06T05:55:27;2.50;;;1.10;;
82387;SDS011;72027;47.420;9.310;2023-08-06T05:57:54;0.98;;;0.82;;
82387;SDS011;72027;47.420;9.310;2023-08-06T06:00:21;0.82;;;0.82;;
82387;SDS011;72027;47.420;9.310;2023-08-06T06:02:48;1.17;;;0.70;;
82387;SDS011;72027;47.420;9.310;2023-08-06T06:05:15;1.25;;;0.80;;
82387;SDS011;72027;47.420;9.310;2023-08-06T06:07:41;1.08;;;0.82;;
82387;SDS011;72027;47.420;9.310;2023-08-06T06:10:08;1.48;;;0.80;;
82387;SDS011;72027;47.420;9.310;2023-08-06T06:12:35;0.80;;;0.77;;
82387;SDS011;72027;47.420;9.310;2023-08-06T06:15:04;1.83;;;0.90;;
82387;SDS011;72027;47.420;9.310;2023-08-06T06:17:31;3.38;;;0.60;;
82387;SDS011;72027;47.420;9.310;2023-08-06T06:19:58;3.95;;;0.70;;
82387;SDS011;72027;47.420;9.310;2023-08-06T06:22:25;1.83;;;0.68;;
82387;SDS011;72027;47.420;9.310;2023-08-06T06:24:52;4.95;;;0.65;;
82387;SDS011;72027;47.420;9.310;2023-08-06T06:27:18;0.95;;;0.52;;
82387;SDS011;72027;47.420;9.310;2023-08-06T06:29:45;3.28;;;1.35;;
82387;SDS011;72027;47.420;9.310;2023-08-06T06:32:12;1.85;;;0.70;;
82387;SDS011;72027;47.420;9.310;2023-08-06T06:34:39;6.47;;;0.60;;
82387;SDS011;72027;47.420;9.310;2023-08-06T06:37:05;1.08;;;0.63;;
82387;SDS011;72027;47.420;9.310;2023-08-06T06:39:32;2.17;;;0.57;;
82387;SDS011;72027;47.420;9.310;2023-08-06T06:41:59;5.78;;;0.52;;
82387;SDS011;72027;47.420;9.310;2023-08-06T06:44:26;7.30;;;0.68;;
82387;SDS011;72027;47.420;9.310;2023-08-06T06:46:53;2.08;;;0.80;;
82387;SDS011;72027;47.420;9.310;2023-08-06T06:51:46;2.72;;;0.30;;
82387;SDS011;72027;47.420;9.310;2023-08-06T06:54:13;0.45;;;0.20;;
82387;SDS011;72027;47.420;9.310;2023-08-06T06:56:39;3.08;;;0.47;;
82387;SDS011;72027;47.420;9.310;2023-08-06T06:59:07;2.58;;;0.65;;
82387;SDS011;72027;47.420;9.310;2023-08-06T07:01:34;1.45;;;0.52;;
82387;SDS011;72027;47.420;9.310;2023-08-06T07:04:01;3.13;;;0.30;;
82387;SDS011;72027;47.420;9.310;2023-08-06T07:06:31;4.15;;;0.65;;
82387;SDS011;72027;47.420;9.310;2023-08-06T07:08:58;1.90;;;0.50;;
82387;SDS011;72027;47.420;9.310;2023-08-06T07:11:25;1.48;;;0.40;;
82387;SDS011;72027;47.420;9.310;2023-08-06T07:14:00;0.40;;;0.40;;
82387;SDS011;72027;47.420;9.310;2023-08-06T07:16:27;2.53;;;0.70;;
82387;SDS011;72027;47.420;9.310;2023-08-06T07:18:55;1.98;;;0.63;;
82387;SDS011;72027;47.420;9.310;2023-08-06T07:21:22;1.15;;;0.45;;
82387;SDS011;72027;47.420;9.310;2023-08-06T07:23:49;1.10;;;0.65;;
82387;SDS011;72027;47.420;9.310;2023-08-06T07:26:16;1.80;;;0.75;;
82387;SDS011;72027;47.420;9.310;2023-08-06T07:28:43;0.65;;;0.40;;
82387;SDS011;72027;47.420;9.310;2023-08-06T07:31:11;2.30;;;0.55;;
82387;SDS011;72027;47.420;9.310;2023-08-06T07:33:38;0.88;;;0.60;;
82387;SDS011;72027;47.420;9.310;2023-08-06T07:36:11;13.07;;;0.80;;
82387;SDS011;72027;47.420;9.310;2023-08-06T07:38:39;0.93;;;0.43;;
82387;SDS011;72027;47.420;9.310;2023-08-06T07:41:07;2.10;;;0.93;;
82387;SDS011;72027;47.420;9.310;2023-08-06T07:43:34;4.28;;;0.80;;
82387;SDS011;72027;47.420;9.310;2023-08-06T07:46:04;2.85;;;0.63;;
82387;SDS011;72027;47.420;9.310;2023-08-06T07:48:31;3.05;;;0.50;;
82387;SDS011;72027;47.420;9.310;2023-08-06T07:50:58;0.82;;;0.57;;
82387;SDS011;72027;47.420;9.310;2023-08-06T07:53:25;3.85;;;1.05;;
82387;SDS011;72027;47.420;9.310;2023-08-06T07:55:56;2.65;;;0.80;;
82387;SDS011;72027;47.420;9.310;2023-08-06T07:58:23;3.38;;;0.52;;
82387;SDS011;72027;47.420;9.310;2023-08-06T08:00:51;4.43;;;0.90;;
82387;SDS011;72027;47.420;9.310;2023-08-06T08:03:18;10.15;;;1.35;;
82387;SDS011;72027;47.420;9.310;2023-08-06T08:05:46;2.40;;;1.05;;
82387;SDS011;72027;47.420;9.310;2023-08-06T08:08:13;2.00;;;0.68;;
82387;SDS011;72027;47.420;9.310;2023-08-06T08:10:40;2.90;;;0.90;;
82387;SDS011;72027;47.420;9.310;2023-08-06T08:13:06;7.85;;;0.88;;
82387;SDS011;72027;47.420;9.310;2023-08-06T08:15:33;7.28;;;0.85;;
82387;SDS011;72027;47.420;9.310;2023-08-06T08:18:00;6.25;;;0.73;;
82387;SDS011;72027;47.420;9.310;2023-08-06T08:20:27;6.07;;;0.60;;
82387;SDS011;72027;47.420;9.310;2023-08-06T08:22:58;7.13;;;0.75;;
82387;SDS011;72027;47.420;9.310;2023-08-06T08:25:26;6.03;;;0.73;;
82387;SDS011;72027;47.420;9.310;2023-08-06T08:27:56;9.45;;;1.05;;
82387;SDS011;72027;47.420;9.310;2023-08-06T08:30:23;3.80;;;0.60;;
82387;SDS011;72027;47.420;9.310;2023-08-06T08:32:51;18.88;;;1.20;;
82387;SDS011;72027;47.420;9.310;2023-08-06T08:35:18;3.50;;;0.65;;
82387;SDS011;72027;47.420;9.310;2023-08-06T08:37:45;7.32;;;0.80;;
82387;SDS011;72027;47.420;9.310;2023-08-06T08:40:13;1.50;;;0.65;;
82387;SDS011;72027;47.420;9.310;2023-08-06T08:42:41;4.18;;;1.42;;
82387;SDS011;72027;47.420;9.310;2023-08-06T08:45:12;0.75;;;0.57;;
82387;SDS011;72027;47.420;9.310;2023-08-06T08:47:43;5.20;;;0.90;;
82387;SDS011;72027;47.420;9.310;2023-08-06T08:50:10;6.32;;;1.00;;
82387;SDS011;72027;47.420;9.310;2023-08-06T08:52:38;3.65;;;0.70;;
82387;SDS011;72027;47.420;9.310;2023-08-06T08:55:06;9.40;;;0.90;;
82387;SDS011;72027;47.420;9.310;2023-08-06T08:57:34;2.63;;;0.73;;
82387;SDS011;72027;47.420;9.310;2023-08-06T09:00:01;5.45;;;0.52;;
82387;SDS011;72027;47.420;9.310;2023-08-06T09:02:28;5.25;;;0.73;;
82387;SDS011;72027;47.420;9.310;2023-08-06T09:05:00;3.55;;;0.75;;
82387;SDS011;72027;47.420;9.310;2023-08-06T09:07:34;5.30;;;0.45;;
82387;SDS011;72027;47.420;9.310;2023-08-06T09:10:07;1.70;;;0.65;;
82387;SDS011;72027;47.420;9.310;2023-08-06T09:12:36;6.43;;;0.85;;
82387;SDS011;72027;47.420;9.310;2023-08-06T09:15:03;1.55;;;0.43;;
82387;SDS011;72027;47.420;9.310;2023-08-06T09:17:31;1.15;;;0.55;;
82387;SDS011;72027;47.420;9.310;2023-08-06T09:19:57;0.30;;;0.20;;
82387;SDS011;72027;47.420;9.310;2023-08-06T09:22:25;0.40;;;0.30;;
82387;SDS011;72027;47.420;9.310;2023-08-06T09:25:01;0.20;;;0.20;;
82387;SDS011;72027;47.420;9.310;2023-08-06T09:27:30;1.35;;;0.20;;
82387;SDS011;72027;47.420;9.310;2023-08-06T09:29:56;0.22;;;0.20;;
82387;SDS011;72027;47.420;9.310;2023-08-06T09:32:23;12.52;;;0.57;;
82387;SDS011;72027;47.420;9.310;2023-08-06T09:34:54;9.85;;;0.50;;
82387;SDS011;72027;47.420;9.310;2023-08-06T09:37:22;4.32;;;0.80;;
82387;SDS011;72027;47.420;9.310;2023-08-06T09:39:49;2.67;;;0.60;;
82387;SDS011;72027;47.420;9.310;2023-08-06T09:42:17;2.70;;;0.50;;
82387;SDS011;72027;47.420;9.310;2023-08-06T09:44:44;4.47;;;0.50;;
82387;SDS011;72027;47.420;9.310;2023-08-06T09:47:11;3.72;;;0.30;;
82387;SDS011;72027;47.420;9.310;2023-08-06T09:49:41;1.67;;;0.47;;
82387;SDS011;72027;47.420;9.310;2023-08-06T09:52:12;0.55;;;0.20;;
82387;SDS011;72027;47.420;9.310;2023-08-06T09:54:39;2.15;;;0.55;;
82387;SDS011;72027;47.420;9.310;2023-08-06T09:57:06;0.77;;;0.28;;
82387;SDS011;72027;47.420;9.310;2023-08-06T09:59:34;1.20;;;0.35;;
82387;SDS011;72027;47.420;9.310;2023-08-06T10:02:03;1.00;;;0.30;;
82387;SDS011;72027;47.420;9.310;2023-08-06T10:07:10;0.10;;;0.10;;
82387;SDS011;72027;47.420;9.310;2023-08-06T10:09:37;0.98;;;0.57;;
82387;SDS011;72027;47.420;9.310;2023-08-06T10:12:04;3.05;;;0.68;;
82387;SDS011;72027;47.420;9.310;2023-08-06T10:14:32;1.45;;;0.30;;
82387;SDS011;72027;47.420;9.310;2023-08-06T10:17:01;0.50;;;0.20;;
82387;SDS011;72027;47.420;9.310;2023-08-06T10:19:29;1.15;;;0.47;;
82387;SDS011;72027;47.420;9.310;2023-08-06T10:22:13;1.85;;;0.40;;
82387;SDS011;72027;47.420;9.310;2023-08-06T10:24:56;0.63;;;0.35;;
82387;SDS011;72027;47.420;9.310;2023-08-06T10:27:34;0.63;;;0.25;;
82387;SDS011;72027;47.420;9.310;2023-08-06T10:32:53;4.97;;;0.70;;
82387;SDS011;72027;47.420;9.310;2023-08-06T10:35:42;6.35;;;1.00;;
82387;SDS011;72027;47.420;9.310;2023-08-06T10:40:39;9.77;;;1.13;;
82387;SDS011;72027;47.420;9.310;2023-08-06T10:43:06;6.50;;;1.58;;
82387;SDS011;72027;47.420;9.310;2023-08-06T10:45:35;6.00;;;1.80;;
82387;SDS011;72027;47.420;9.310;2023-08-06T10:48:03;24.23;;;1.63;;
82387;SDS011;72027;47.420;9.310;2023-08-06T10:50:31;10.18;;;1.33;;
82387;SDS011;72027;47.420;9.310;2023-08-06T10:53:00;6.07;;;1.40;;
82387;SDS011;72027;47.420;9.310;2023-08-06T10:55:31;6.85;;;2.47;;
82387;SDS011;72027;47.420;9.310;2023-08-06T10:57:58;5.43;;;1.55;;
82387;SDS011;72027;47.420;9.310;2023-08-06T11:00:25;2.00;;;0.95;;
82387;SDS011;72027;47.420;9.310;2023-08-06T11:02:52;4.63;;;1.73;;
82387;SDS011;72027;47.420;9.310;2023-08-06T11:05:20;7.35;;;1.27;;
82387;SDS011;72027;47.420;9.310;2023-08-06T11:07:47;1.38;;;0.57;;
82387;SDS011;72027;47.420;9.310;2023-08-06T11:10:15;1.33;;;0.40;;
82387;SDS011;72027;47.420;9.310;2023-08-06T11:12:42;1.55;;;0.40;;
82387;SDS011;72027;47.420;9.310;2023-08-06T11:15:09;0.30;;;0.30;;
82387;SDS011;72027;47.420;9.310;2023-08-06T11:17:39;4.13;;;0.82;;
82387;SDS011;72027;47.420;9.310;2023-08-06T11:20:06;1.15;;;0.50;;
82387;SDS011;72027;47.420;9.310;2023-08-06T11:22:33;1.95;;;0.50;;
82387;SDS011;72027;47.420;9.310;2023-08-06T11:25:02;3.20;;;0.60;;
82387;SDS011;72027;47.420;9.310;2023-08-06T11:27:29;0.52;;;0.40;;
82387;SDS011;72027;47.420;9.310;2023-08-06T11:29:56;1.73;;;0.40;;
82387;SDS011;72027;47.420;9.310;2023-08-06T11:32:22;1.35;;;0.43;;
82387;SDS011;72027;47.420;9.310;2023-08-06T11:34:50;2.78;;;0.30;;
82387;SDS011;72027;47.420;9.310;2023-08-06T11:37:17;2.17;;;0.40;;
82387;SDS011;72027;47.420;9.310;2023-08-06T11:39:49;0.60;;;0.40;;
82387;SDS011;72027;47.420;9.310;2023-08-06T11:42:15;9.70;;;1.08;;
82387;SDS011;72027;47.420;9.310;2023-08-06T11:44:42;3.50;;;0.55;;
82387;SDS011;72027;47.420;9.310;2023-08-06T11:47:13;8.05;;;0.73;;
82387;SDS011;72027;47.420;9.310;2023-08-06T11:52:16;6.65;;;1.48;;
82387;SDS011;72027;47.420;9.310;2023-08-06T11:57:34;2.90;;;1.00;;
82387;SDS011;72027;47.420;9.310;2023-08-06T12:00:20;2.47;;;1.08;;
82387;SDS011;72027;47.420;9.310;2023-08-06T12:02:50;5.75;;;0.55;;
82387;SDS011;72027;47.420;9.310;2023-08-06T12:05:19;8.95;;;0.70;;
82387;SDS011;72027;47.420;9.310;2023-08-06T12:07:50;2.58;;;0.70;;
82387;SDS011;72027;47.420;9.310;2023-08-06T12:10:19;1.05;;;0.68;;
82387;SDS011;72027;47.420;9.310;2023-08-06T12:12:46;6.75;;;0.57;;
82387;SDS011;72027;47.420;9.310;2023-08-06T12:15:14;0.80;;;0.50;;
82387;SDS011;72027;47.420;9.310;2023-08-06T12:17:41;1.63;;;0.47;;
82387;SDS011;72027;47.420;9.310;2023-08-06T12:20:08;3.15;;;0.70;;
82387;SDS011;72027;47.420;9.310;2023-08-06T12:22:36;2.03;;;0.80;;
82387;SDS011;72027;47.420;9.310;2023-08-06T12:25:06;0.88;;;0.60;;
82387;SDS011;72027;47.420;9.310;2023-08-06T12:27:35;2.28;;;0.60;;
82387;SDS011;72027;47.420;9.310;2023-08-06T12:30:02;0.98;;;0.30;;
82387;SDS011;72027;47.420;9.310;2023-08-06T12:32:30;3.05;;;0.70;;
82387;SDS011;72027;47.420;9.310;2023-08-06T12:34:57;4.38;;;0.60;;
82387;SDS011;72027;47.420;9.310;2023-08-06T12:37:24;1.63;;;0.43;;
82387;SDS011;72027;47.420;9.310;2023-08-06T12:39:51;0.98;;;0.43;;
82387;SDS011;72027;47.420;9.310;2023-08-06T12:42:18;0.73;;;0.30;;
82387;SDS011;72027;47.420;9.310;2023-08-06T12:44:45;3.35;;;0.52;;
82387;SDS011;72027;47.420;9.310;2023-08-06T12:47:13;2.33;;;0.40;;
82387;SDS011;72027;47.420;9.310;2023-08-06T12:49:40;2.03;;;1.00;;
82387;SDS011;72027;47.420;9.310;2023-08-06T12:52:07;1.52;;;0.50;;
82387;SDS011;72027;47.420;9.310;2023-08-06T12:54:35;0.68;;;0.50;;
82387;SDS011;72027;47.420;9.310;2023-08-06T12:57:05;2.58;;;0.40;;
82387;SDS011;72027;47.420;9.310;2023-08-06T12:59:32;2.63;;;0.60;;
82387;SDS011;72027;47.420;9.310;2023-08-06T13:02:00;2.85;;;0.80;;
82387;SDS011;72027;47.420;9.310;2023-08-06T13:04:27;0.70;;;0.32;;
82387;SDS011;72027;47.420;9.310;2023-08-06T13:06:54;7.07;;;0.40;;
82387;SDS011;72027;47.420;9.310;2023-08-06T13:09:21;8.20;;;1.05;;
82387;SDS011;72027;47.420;9.310;2023-08-06T13:11:47;7.60;;;0.47;;
82387;SDS011;72027;47.420;9.310;2023-08-06T13:14:16;2.97;;;0.52;;
82387;SDS011;72027;47.420;9.310;2023-08-06T13:16:43;5.28;;;0.70;;
82387;SDS011;72027;47.420;9.310;2023-08-06T13:19:11;7.57;;;0.85;;
82387;SDS011;72027;47.420;9.310;2023-08-06T13:24:08;1.00;;;0.40;;
82387;SDS011;72027;47.420;9.310;2023-08-06T13:26:35;2.08;;;0.90;;
82387;SDS011;72027;47.420;9.310;2023-08-06T13:29:02;1.42;;;0.65;;
82387;SDS011;72027;47.420;9.310;2023-08-06T13:31:29;8.55;;;0.50;;
82387;SDS011;72027;47.420;9.310;2023-08-06T13:33:56;4.32;;;0.50;;
82387;SDS011;72027;47.420;9.310;2023-08-06T13:36:25;0.75;;;0.47;;
82387;SDS011;72027;47.420;9.310;2023-08-06T13:38:52;4.50;;;0.70;;
82387;SDS011;72027;47.420;9.310;2023-08-06T13:41:19;4.03;;;0.63;;
82387;SDS011;72027;47.420;9.310;2023-08-06T13:43:46;2.60;;;0.47;;
82387;SDS011;72027;47.420;9.310;2023-08-06T13:46:13;4.70;;;0.73;;
82387;SDS011;72027;47.420;9.310;2023-08-06T13:48:45;4.07;;;0.60;;
82387;SDS011;72027;47.420;9.310;2023-08-06T13:51:13;3.17;;;0.70;;
82387;SDS011;72027;47.420;9.310;2023-08-06T13:53:40;1.65;;;0.95;;
82387;SDS011;72027;47.420;9.310;2023-08-06T13:56:08;3.25;;;0.82;;
82387;SDS011;72027;47.420;9.310;2023-08-06T13:58:41;4.13;;;0.50;;
82387;SDS011;72027;47.420;9.310;2023-08-06T14:01:09;3.40;;;0.35;;
82387;SDS011;72027;47.420;9.310;2023-08-06T14:03:37;1.10;;;0.50;;
82387;SDS011;72027;47.420;9.310;2023-08-06T14:06:04;7.35;;;0.77;;
82387;SDS011;72027;47.420;9.310;2023-08-06T14:08:31;1.88;;;0.63;;
82387;SDS011;72027;47.420;9.310;2023-08-06T14:10:57;4.78;;;0.85;;
82387;SDS011;72027;47.420;9.310;2023-08-06T14:13:25;1.55;;;0.55;;
82387;SDS011;72027;47.420;9.310;2023-08-06T14:15:52;3.38;;;0.57;;
82387;SDS011;72027;47.420;9.310;2023-08-06T14:18:19;4.63;;;0.60;;
82387;SDS011;72027;47.420;9.310;2023-08-06T14:20:45;5.35;;;0.55;;
82387;SDS011;72027;47.420;9.310;2023-08-06T14:23:12;1.38;;;0.40;;
82387;SDS011;72027;47.420;9.310;2023-08-06T14:25:39;8.18;;;0.80;;
82387;SDS011;72027;47.420;9.310;2023-08-06T14:28:06;5.78;;;0.80;;
82387;SDS011;72027;47.420;9.310;2023-08-06T14:30:35;2.35;;;0.70;;
82387;SDS011;72027;47.420;9.310;2023-08-06T14:33:02;5.35;;;0.60;;
82387;SDS011;72027;47.420;9.310;2023-08-06T14:35:46;1.88;;;0.50;;
82387;SDS011;72027;47.420;9.310;2023-08-06T14:38:13;2.85;;;0.60;;
82387;SDS011;72027;47.420;9.310;2023-08-06T14:40:40;14.57;;;0.90;;
82387;SDS011;72027;47.420;9.310;2023-08-06T14:43:07;4.05;;;0.60;;
82387;SDS011;72027;47.420;9.310;2023-08-06T14:45:36;5.30;;;0.70;;
82387;SDS011;72027;47.420;9.310;2023-08-06T14:48:04;12.25;;;0.90;;
82387;SDS011;72027;47.420;9.310;2023-08-06T14:50:31;7.18;;;2.25;;
82387;SDS011;72027;47.420;9.310;2023-08-06T14:52:58;15.60;;;1.13;;
82387;SDS011;72027;47.420;9.310;2023-08-06T14:55:31;10.23;;;0.90;;
82387;SDS011;72027;47.420;9.310;2023-08-06T14:58:00;6.00;;;0.95;;
82387;SDS011;72027;47.420;9.310;2023-08-06T15:00:28;9.18;;;0.63;;
82387;SDS011;72027;47.420;9.310;2023-08-06T15:02:55;10.00;;;0.80;;
82387;SDS011;72027;47.420;9.310;2023-08-06T15:05:21;7.65;;;0.70;;
82387;SDS011;72027;47.420;9.310;2023-08-06T15:07:48;11.40;;;0.75;;
82387;SDS011;72027;47.420;9.310;2023-08-06T15:10:15;3.45;;;0.50;;
82387;SDS011;72027;47.420;9.310;2023-08-06T15:12:45;1.27;;;0.70;;
82387;SDS011;72027;47.420;9.310;2023-08-06T15:15:12;4.30;;;1.30;;